createdAt,value
2022-07-28T00:00:43.101Z,1.69
2022-07-28T00:01:29.697Z,1.73
2022-07-28T00:02:17.094Z,1.68
2022-07-28T00:03:03.893Z,1.70
2022-07-28T00:03:50.509Z,1.88
2022-07-28T00:04:36.994Z,1.91
2022-07-28T00:05:23.659Z,1.60
2022-07-28T00:06:10.090Z,1.53
2022-07-28T00:06:56.844Z,1.57
2022-07-28T00:07:43.322Z,1.63
2022-07-28T00:08:29.844Z,1.79
2022-07-28T00:09:16.315Z,1.44
2022-07-28T00:10:03.902Z,1.72
2022-07-28T00:10:53.123Z,1.78
2022-07-28T00:11:50.373Z,1.80
2022-07-28T00:12:41.396Z,1.78
2022-07-28T00:13:27.854Z,1.60
2022-07-28T00:14:14.740Z,1.85
2022-07-28T00:15:02.110Z,1.79
2022-07-28T00:15:48.741Z,1.65
2022-07-28T00:16:35.471Z,1.43
2022-07-28T00:17:22.270Z,1.60
2022-07-28T00:18:08.908Z,2.05
2022-07-28T00:18:55.468Z,1.98
2022-07-28T00:19:42.630Z,1.60
2022-07-28T00:20:30.569Z,1.61
2022-07-28T00:21:17.113Z,1.88
2022-07-28T00:22:03.828Z,1.89
2022-07-28T00:22:51.764Z,1.60
2022-07-28T00:23:39.865Z,1.67
2022-07-28T00:24:27.219Z,1.69
2022-07-28T00:25:15.384Z,1.94
2022-07-28T00:26:01.870Z,1.66
2022-07-28T00:26:48.304Z,1.75
2022-07-28T00:27:34.777Z,1.85
2022-07-28T00:28:21.266Z,1.78
2022-07-28T00:29:08.268Z,2.05
2022-07-28T00:29:54.716Z,2.00
2022-07-28T00:30:41.164Z,1.76
2022-07-28T00:31:27.750Z,1.81
2022-07-28T00:32:14.265Z,1.89
2022-07-28T00:33:00.995Z,1.66
2022-07-28T00:33:47.540Z,1.64
2022-07-28T00:34:34.099Z,1.67
2022-07-28T00:35:30.413Z,1.89
2022-07-28T00:36:18.308Z,2.04
2022-07-28T00:37:14.609Z,1.84
2022-07-28T00:38:01.555Z,1.58
2022-07-28T00:38:48.823Z,1.72
2022-07-28T00:39:35.391Z,1.62
2022-07-28T00:40:21.948Z,1.53
2022-07-28T00:41:11.371Z,1.81
2022-07-28T00:41:57.963Z,1.72
2022-07-28T00:42:44.619Z,1.67
2022-07-28T00:43:31.101Z,1.42
2022-07-28T00:44:17.891Z,1.68
2022-07-28T00:45:05.603Z,1.72
2022-07-28T00:45:52.180Z,1.80
2022-07-28T00:46:39.298Z,1.94
2022-07-28T00:47:25.974Z,1.78
2022-07-28T00:48:12.442Z,1.59
2022-07-28T00:48:59.354Z,1.86
2022-07-28T00:49:46.178Z,1.84
2022-07-28T00:50:32.853Z,1.82
2022-07-28T00:51:26.613Z,1.60
2022-07-28T00:52:13.775Z,1.77
2022-07-28T00:53:00.525Z,1.60
2022-07-28T00:53:47.759Z,1.68
2022-07-28T00:54:34.555Z,1.75
2022-07-28T00:55:23.454Z,1.69
2022-07-28T00:56:10.456Z,1.83
2022-07-28T00:56:56.981Z,1.77
2022-07-28T00:57:43.620Z,1.86
2022-07-28T00:58:30.483Z,1.85
2022-07-28T00:59:19.429Z,1.72
2022-07-28T01:00:06.791Z,1.63
2022-07-28T01:01:00.663Z,1.78
2022-07-28T01:01:48.944Z,1.76
2022-07-28T01:02:35.913Z,1.74
2022-07-28T01:03:24.429Z,1.58
2022-07-28T01:04:11.342Z,1.48
2022-07-28T01:04:58.119Z,1.82
2022-07-28T01:06:39.224Z,1.97
2022-07-28T01:07:43.605Z,1.64
2022-07-28T01:08:40.381Z,1.58
2022-07-28T01:09:45.369Z,1.72
2022-07-28T01:10:46.562Z,1.52
2022-07-28T01:11:51.967Z,1.53
2022-07-28T01:12:51.597Z,1.38
2022-07-28T01:14:16.140Z,1.67
2022-07-28T01:15:25.175Z,1.53
2022-07-28T01:16:12.418Z,1.43
2022-07-28T01:17:15.131Z,1.76
2022-07-28T01:18:18.499Z,1.73
2022-07-28T01:19:19.076Z,1.34
2022-07-28T01:20:08.515Z,1.63
2022-07-28T01:21:13.735Z,1.78
2022-07-28T01:22:04.412Z,1.68
2022-07-28T01:23:12.121Z,1.87
2022-07-28T01:24:26.340Z,1.80
2022-07-28T01:25:32.367Z,1.57
2022-07-28T01:26:26.428Z,1.63
2022-07-28T01:27:36.727Z,1.66
2022-07-28T01:28:53.512Z,1.70
2022-07-28T01:30:04.070Z,1.38
2022-07-28T01:30:56.408Z,1.43
2022-07-28T01:31:54.049Z,1.56
2022-07-28T01:32:50.821Z,1.78
2022-07-28T01:33:45.215Z,1.75
2022-07-28T01:34:55.796Z,1.73
2022-07-28T01:35:47.694Z,1.62
2022-07-28T01:36:43.083Z,1.60
2022-07-28T01:37:32.378Z,1.65
2022-07-28T01:38:22.897Z,1.77
2022-07-28T01:39:11.367Z,1.59
2022-07-28T01:40:03.379Z,1.65
2022-07-28T01:40:54.395Z,1.59
2022-07-28T01:41:45.071Z,1.74
2022-07-28T01:42:37.244Z,1.55
2022-07-28T01:43:26.271Z,1.51
2022-07-28T01:44:18.786Z,1.60
2022-07-28T01:45:08.939Z,1.83
2022-07-28T01:45:58.652Z,2.12
2022-07-28T01:46:47.067Z,1.85
2022-07-28T01:47:35.626Z,1.89
2022-07-28T01:48:24.942Z,1.66
2022-07-28T01:49:15.046Z,1.94
2022-07-28T01:50:08.262Z,1.88
2022-07-28T01:50:57.541Z,1.56
2022-07-28T01:51:46.157Z,1.70
2022-07-28T01:52:34.868Z,1.55
2022-07-28T01:53:24.135Z,1.56
2022-07-28T01:54:12.510Z,1.63
2022-07-28T01:55:02.204Z,1.78
2022-07-28T01:55:52.469Z,1.91
2022-07-28T01:56:41.616Z,1.75
2022-07-28T01:57:32.708Z,1.81
2022-07-28T01:58:23.481Z,1.73
2022-07-28T01:59:13.036Z,1.68
2022-07-28T02:00:01.740Z,1.91
2022-07-28T02:01:01.419Z,1.77
2022-07-28T02:01:51.889Z,1.77
2022-07-28T02:02:42.445Z,1.85
2022-07-28T02:03:31.564Z,1.82
2022-07-28T02:04:21.695Z,1.76
2022-07-28T02:05:12.406Z,1.42
2022-07-28T02:06:02.872Z,1.68
2022-07-28T02:06:52.858Z,1.89
2022-07-28T02:07:42.901Z,1.60
2022-07-28T02:08:33.511Z,1.72
2022-07-28T02:09:22.886Z,1.85
2022-07-28T02:10:14.284Z,1.63
2022-07-28T02:11:20.308Z,1.98
2022-07-28T02:12:09.798Z,1.77
2022-07-28T02:13:00.010Z,1.74
2022-07-28T02:13:49.926Z,1.61
2022-07-28T02:14:38.315Z,1.79
2022-07-28T02:15:27.781Z,1.75
2022-07-28T02:16:21.038Z,1.80
2022-07-28T02:17:17.398Z,1.71
2022-07-28T02:18:07.497Z,1.72
2022-07-28T02:18:58.831Z,1.88
2022-07-28T02:19:48.672Z,1.56
2022-07-28T02:20:36.730Z,1.66
2022-07-28T02:21:26.509Z,1.64
2022-07-28T02:22:15.520Z,1.69
2022-07-28T02:23:03.366Z,1.74
2022-07-28T02:23:52.342Z,1.73
2022-07-28T02:24:43.246Z,1.62
2022-07-28T02:25:30.737Z,1.79
2022-07-28T02:26:26.973Z,1.63
2022-07-28T02:27:36.465Z,1.61
2022-07-28T02:28:27.903Z,1.70
2022-07-28T02:29:47.992Z,1.63
2022-07-28T02:30:41.923Z,1.82
2022-07-28T02:31:50.373Z,1.66
2022-07-28T02:32:51.139Z,1.68
2022-07-28T02:33:59.312Z,1.82
2022-07-28T02:34:49.874Z,1.92
2022-07-28T02:35:45.666Z,1.51
2022-07-28T02:36:47.468Z,1.62
2022-07-28T02:37:39.771Z,1.69
2022-07-28T02:38:30.980Z,1.67
2022-07-28T02:39:25.085Z,1.74
2022-07-28T02:40:15.245Z,1.68
2022-07-28T02:41:14.654Z,1.79
2022-07-28T02:42:07.631Z,1.61
2022-07-28T02:42:56.936Z,1.82
2022-07-28T02:43:49.655Z,1.80
2022-07-28T02:44:42.576Z,1.83
2022-07-28T02:45:32.667Z,1.87
2022-07-28T02:46:25.571Z,1.57
2022-07-28T02:47:18.963Z,1.73
2022-07-28T02:48:11.733Z,1.66
2022-07-28T02:49:14.026Z,1.80
2022-07-28T02:50:03.442Z,1.85
2022-07-28T02:50:53.925Z,1.58
2022-07-28T02:51:44.922Z,1.71
2022-07-28T02:52:33.434Z,1.75
2022-07-28T02:53:23.165Z,1.81
2022-07-28T02:54:12.355Z,1.72
2022-07-28T02:55:02.497Z,1.70
2022-07-28T02:55:51.298Z,1.82
2022-07-28T02:56:41.480Z,1.87
2022-07-28T02:57:43.756Z,1.88
2022-07-28T02:58:32.199Z,1.81
2022-07-28T02:59:21.999Z,1.79
2022-07-28T03:00:09.940Z,1.84
2022-07-28T03:01:00.673Z,1.78
2022-07-28T03:01:49.071Z,1.90
2022-07-28T03:02:37.922Z,1.59
2022-07-28T03:03:25.810Z,1.90
2022-07-28T03:04:14.973Z,2.02
2022-07-28T03:05:02.881Z,2.07
2022-07-28T03:05:54.440Z,1.95
2022-07-28T03:06:41.844Z,1.98
2022-07-28T03:07:30.845Z,1.98
2022-07-28T03:08:17.440Z,2.11
2022-07-28T03:09:04.257Z,1.92
2022-07-28T03:09:54.463Z,1.70
2022-07-28T03:10:41.810Z,1.89
2022-07-28T03:11:28.324Z,1.91
2022-07-28T03:12:15.500Z,1.87
2022-07-28T03:13:09.400Z,1.77
2022-07-28T03:13:55.868Z,1.69
2022-07-28T03:14:42.414Z,2.01
2022-07-28T03:15:30.901Z,2.10
2022-07-28T03:16:17.999Z,1.85
2022-07-28T03:17:05.441Z,1.94
2022-07-28T03:17:52.011Z,1.86
2022-07-28T03:18:38.453Z,1.68
2022-07-28T03:19:25.813Z,1.57
2022-07-28T03:20:12.893Z,1.65
2022-07-28T03:20:59.486Z,1.91
2022-07-28T03:21:49.357Z,1.79
2022-07-28T03:22:36.477Z,1.78
2022-07-28T03:23:32.295Z,1.93
2022-07-28T03:24:23.200Z,1.84
2022-07-28T03:25:23.168Z,2.01
2022-07-28T03:26:19.771Z,1.94
2022-07-28T03:27:27.510Z,2.52
2022-07-28T03:28:20.147Z,1.96
2022-07-28T03:29:10.110Z,1.94
2022-07-28T03:30:07.102Z,2.01
2022-07-28T03:31:07.639Z,1.96
2022-07-28T03:31:58.433Z,2.04
2022-07-28T03:32:54.348Z,1.90
2022-07-28T03:33:41.666Z,1.99
2022-07-28T03:34:29.407Z,1.74
2022-07-28T03:35:16.263Z,1.90
2022-07-28T03:36:09.204Z,1.97
2022-07-28T03:37:18.542Z,2.05
2022-07-28T03:38:10.736Z,2.14
2022-07-28T03:39:06.486Z,2.01
2022-07-28T03:39:59.207Z,1.95
2022-07-28T03:40:47.862Z,1.92
2022-07-28T03:41:36.510Z,1.85
2022-07-28T03:42:25.826Z,2.09
2022-07-28T03:43:16.469Z,1.98
2022-07-28T03:44:03.661Z,2.01
2022-07-28T03:44:50.714Z,2.04
2022-07-28T03:45:40.955Z,2.06
2022-07-28T03:46:28.394Z,2.24
2022-07-28T03:47:15.675Z,2.10
2022-07-28T03:48:02.330Z,1.77
2022-07-28T03:48:48.892Z,2.16
2022-07-28T03:49:35.531Z,2.32
2022-07-28T03:50:24.146Z,2.19
2022-07-28T03:51:10.623Z,1.75
2022-07-28T03:51:57.069Z,1.98
2022-07-28T03:52:43.661Z,2.03
2022-07-28T03:53:30.149Z,2.37
2022-07-28T03:54:17.002Z,2.12
2022-07-28T03:55:04.551Z,2.18
2022-07-28T03:55:51.337Z,2.08
2022-07-28T03:56:37.813Z,2.23
2022-07-28T03:57:24.256Z,2.34
2022-07-28T03:58:10.719Z,2.31
2022-07-28T03:58:57.277Z,1.97
2022-07-28T03:59:43.871Z,2.19
2022-07-28T04:00:30.596Z,2.31
2022-07-28T04:01:17.224Z,2.17
2022-07-28T04:02:04.103Z,1.98
2022-07-28T04:02:51.004Z,1.96
2022-07-28T04:03:44.103Z,2.33
2022-07-28T04:04:30.868Z,2.29
2022-07-28T04:05:19.308Z,2.22
2022-07-28T04:06:05.910Z,2.02
2022-07-28T04:06:52.566Z,1.91
2022-07-28T04:07:40.254Z,1.83
2022-07-28T04:08:26.727Z,2.18
2022-07-28T04:09:13.340Z,2.27
2022-07-28T04:09:59.791Z,2.29
2022-07-28T04:10:46.911Z,2.43
2022-07-28T04:11:33.504Z,2.34
2022-07-28T04:12:19.964Z,2.51
2022-07-28T04:13:07.756Z,2.56
2022-07-28T04:13:56.054Z,2.48
2022-07-28T04:14:42.483Z,2.88
2022-07-28T04:15:31.221Z,3.08
2022-07-28T04:16:17.710Z,2.72
2022-07-28T04:17:04.276Z,2.20
2022-07-28T04:17:54.106Z,2.34
2022-07-28T04:18:40.565Z,2.38
2022-07-28T04:19:27.040Z,2.43
2022-07-28T04:20:13.732Z,2.52
2022-07-28T04:21:00.243Z,2.23
2022-07-28T04:21:46.851Z,2.40
2022-07-28T04:22:33.342Z,2.19
2022-07-28T04:23:20.801Z,2.31
2022-07-28T04:24:10.604Z,2.44
2022-07-28T04:24:57.042Z,2.62
2022-07-28T04:25:43.491Z,2.48
2022-07-28T04:26:29.929Z,2.22
2022-07-28T04:27:16.439Z,2.38
2022-07-28T04:28:02.928Z,2.36
2022-07-28T04:28:51.960Z,2.40
2022-07-28T04:29:38.460Z,2.41
2022-07-28T04:30:25.570Z,2.48
2022-07-28T04:31:12.793Z,2.30
2022-07-28T04:31:59.279Z,2.12
2022-07-28T04:32:48.265Z,2.43
2022-07-28T04:33:34.887Z,2.23
2022-07-28T04:34:21.377Z,2.29
2022-07-28T04:35:14.058Z,2.57
2022-07-28T04:36:04.246Z,2.33
2022-07-28T04:36:52.253Z,2.32
2022-07-28T04:37:39.950Z,2.17
2022-07-28T04:38:26.383Z,2.29
2022-07-28T04:39:12.874Z,2.52
2022-07-28T04:39:59.534Z,2.53
2022-07-28T04:40:49.813Z,2.34
2022-07-28T04:41:36.470Z,2.45
2022-07-28T04:42:23.166Z,2.26
2022-07-28T04:43:10.346Z,2.14
2022-07-28T04:43:59.219Z,1.92
2022-07-28T04:44:45.707Z,2.01
2022-07-28T04:45:32.226Z,2.27
2022-07-28T04:46:19.161Z,2.40
2022-07-28T04:47:06.489Z,2.30
2022-07-28T04:47:53.271Z,2.40
2022-07-28T04:48:39.837Z,2.38
2022-07-28T04:49:26.358Z,2.53
2022-07-28T04:50:16.023Z,2.44
2022-07-28T04:51:05.330Z,2.74
2022-07-28T04:51:52.388Z,2.51
2022-07-28T04:52:40.853Z,2.64
2022-07-28T04:53:29.218Z,2.21
2022-07-28T04:54:17.079Z,2.27
2022-07-28T04:55:05.490Z,2.45
2022-07-28T04:55:53.443Z,2.70
2022-07-28T04:56:41.542Z,2.74
2022-07-28T04:57:30.973Z,2.38
2022-07-28T04:58:18.406Z,2.52
2022-07-28T04:59:05.918Z,2.57
2022-07-28T04:59:54.213Z,2.62
2022-07-28T05:00:43.289Z,2.39
2022-07-28T05:01:30.352Z,2.53
2022-07-28T05:02:16.822Z,2.29
2022-07-28T05:03:04.207Z,2.38
2022-07-28T05:03:50.663Z,2.38
2022-07-28T05:04:37.168Z,2.45
2022-07-28T05:05:24.657Z,2.55
2022-07-28T05:06:11.325Z,2.90
2022-07-28T05:06:57.816Z,2.38
2022-07-28T05:07:44.302Z,2.34
2022-07-28T05:08:30.759Z,2.36
2022-07-28T05:09:17.670Z,2.41
2022-07-28T05:10:07.099Z,2.54
2022-07-28T05:10:55.666Z,2.36
2022-07-28T05:11:42.534Z,2.19
2022-07-28T05:12:30.319Z,2.24
2022-07-28T05:13:17.077Z,2.47
2022-07-28T05:14:03.618Z,2.57
2022-07-28T05:14:50.137Z,2.30
2022-07-28T05:15:36.573Z,2.52
2022-07-28T05:16:23.160Z,2.40
2022-07-28T05:17:09.787Z,2.36
2022-07-28T05:17:56.326Z,2.29
2022-07-28T05:18:42.739Z,2.37
2022-07-28T05:19:29.573Z,2.35
2022-07-28T05:20:17.320Z,2.49
2022-07-28T05:21:04.416Z,2.31
2022-07-28T05:21:50.887Z,2.26
2022-07-28T05:22:50.944Z,2.33
2022-07-28T05:23:37.456Z,2.38
2022-07-28T05:24:23.910Z,2.37
2022-07-28T05:25:15.174Z,2.26
2022-07-28T05:26:01.704Z,2.19
2022-07-28T05:26:48.145Z,2.35
2022-07-28T05:27:34.612Z,2.28
2022-07-28T05:28:21.065Z,2.27
2022-07-28T05:29:07.713Z,2.29
2022-07-28T05:29:54.179Z,2.03
2022-07-28T05:30:40.856Z,2.21
2022-07-28T05:31:27.424Z,2.16
2022-07-28T05:32:17.342Z,2.49
2022-07-28T05:33:04.457Z,2.04
2022-07-28T05:33:50.899Z,2.16
2022-07-28T05:34:38.783Z,1.98
2022-07-28T05:35:27.255Z,2.19
2022-07-28T05:36:13.708Z,2.34
2022-07-28T05:37:03.281Z,2.01
2022-07-28T05:37:49.855Z,2.18
2022-07-28T05:38:36.501Z,2.09
2022-07-28T05:39:24.297Z,2.06
2022-07-28T05:40:16.311Z,1.92
2022-07-28T05:41:02.800Z,2.21
2022-07-28T05:41:50.099Z,2.12
2022-07-28T05:42:36.843Z,1.99
2022-07-28T05:43:23.437Z,2.29
2022-07-28T05:44:09.947Z,2.15
2022-07-28T05:44:56.398Z,2.12
2022-07-28T05:45:43.130Z,2.18
2022-07-28T05:46:29.781Z,2.21
2022-07-28T05:47:16.230Z,2.23
2022-07-28T05:48:02.774Z,1.93
2022-07-28T05:48:49.708Z,2.01
2022-07-28T05:49:36.216Z,2.00
2022-07-28T05:50:26.035Z,2.25
2022-07-28T05:51:12.540Z,1.91
2022-07-28T05:51:59.207Z,2.14
2022-07-28T05:52:47.145Z,1.82
2022-07-28T05:53:33.698Z,2.28
2022-07-28T05:54:20.317Z,2.16
2022-07-28T05:55:08.119Z,2.04
2022-07-28T05:55:59.650Z,1.83
2022-07-28T05:56:50.261Z,2.02
2022-07-28T05:57:38.338Z,2.09
2022-07-28T05:58:25.073Z,2.19
2022-07-28T05:59:14.785Z,2.11
2022-07-28T06:00:01.690Z,2.16
2022-07-28T06:01:00.371Z,2.01
2022-07-28T06:01:47.314Z,1.97
2022-07-28T06:02:34.143Z,1.78
2022-07-28T06:03:20.656Z,2.31
2022-07-28T06:04:26.566Z,2.03
2022-07-28T06:05:13.941Z,1.96
2022-07-28T06:06:16.130Z,1.92
2022-07-28T06:07:03.469Z,1.88
2022-07-28T06:07:51.200Z,1.88
2022-07-28T06:08:37.710Z,2.20
2022-07-28T06:09:24.169Z,2.30
2022-07-28T06:10:13.142Z,2.03
2022-07-28T06:10:59.943Z,1.87
2022-07-28T06:11:46.443Z,2.11
2022-07-28T06:12:42.529Z,2.21
2022-07-28T06:13:29.779Z,2.24
2022-07-28T06:14:16.632Z,2.23
2022-07-28T06:15:05.461Z,2.27
2022-07-28T06:15:52.730Z,2.49
2022-07-28T06:16:39.416Z,2.58
2022-07-28T06:17:25.940Z,2.32
2022-07-28T06:18:12.922Z,2.18
2022-07-28T06:18:59.700Z,1.99
2022-07-28T06:19:46.259Z,2.00
2022-07-28T06:20:32.810Z,2.05
2022-07-28T06:21:19.337Z,2.07
2022-07-28T06:22:06.266Z,1.80
2022-07-28T06:22:54.962Z,1.91
2022-07-28T06:23:41.914Z,2.03
2022-07-28T06:24:29.641Z,2.12
2022-07-28T06:25:27.476Z,2.21
2022-07-28T06:26:14.033Z,2.08
2022-07-28T06:27:02.830Z,1.77
2022-07-28T06:27:52.359Z,1.94
2022-07-28T06:28:39.044Z,2.06
2022-07-28T06:29:25.484Z,2.01
2022-07-28T06:30:12.877Z,1.91
2022-07-28T06:30:59.453Z,1.75
2022-07-28T06:31:46.072Z,2.02
2022-07-28T06:32:32.594Z,1.87
2022-07-28T06:33:19.210Z,2.19
2022-07-28T06:34:05.742Z,1.99
2022-07-28T06:34:52.239Z,2.06
2022-07-28T06:35:44.975Z,1.98
2022-07-28T06:36:37.689Z,2.05
2022-07-28T06:37:24.115Z,2.09
2022-07-28T06:38:11.201Z,2.05
2022-07-28T06:38:57.950Z,2.14
2022-07-28T06:39:44.410Z,2.12
2022-07-28T06:40:31.630Z,1.83
2022-07-28T06:41:18.285Z,1.80
2022-07-28T06:42:04.931Z,2.07
2022-07-28T06:42:51.840Z,2.25
2022-07-28T06:43:40.327Z,2.20
2022-07-28T06:44:42.634Z,2.08
2022-07-28T06:45:33.418Z,1.79
2022-07-28T06:46:20.264Z,1.98
2022-07-28T06:47:08.128Z,1.82
2022-07-28T06:47:54.741Z,1.95
2022-07-28T06:48:43.402Z,2.05
2022-07-28T06:49:30.014Z,1.90
2022-07-28T06:50:25.207Z,1.85
2022-07-28T06:51:15.044Z,2.02
2022-07-28T06:52:01.620Z,2.09
2022-07-28T06:52:48.221Z,1.92
2022-07-28T06:53:35.029Z,2.09
2022-07-28T06:54:21.576Z,2.00
2022-07-28T06:55:09.221Z,1.93
2022-07-28T06:55:57.297Z,2.03
2022-07-28T06:56:43.960Z,1.99
2022-07-28T06:57:35.951Z,1.98
2022-07-28T06:58:22.387Z,1.82
2022-07-28T06:59:08.840Z,2.03
2022-07-28T06:59:55.399Z,1.97
2022-07-28T07:00:43.259Z,1.85
2022-07-28T07:01:29.797Z,1.90
2022-07-28T07:02:17.083Z,1.90
2022-07-28T07:03:04.016Z,2.34
2022-07-28T07:03:50.569Z,1.97
2022-07-28T07:04:37.093Z,1.94
2022-07-28T07:05:23.727Z,2.03
2022-07-28T07:06:10.935Z,2.04
2022-07-28T07:06:57.905Z,2.19
2022-07-28T07:07:44.399Z,2.24
2022-07-28T07:08:31.075Z,2.02
2022-07-28T07:09:17.516Z,2.01
2022-07-28T07:10:05.715Z,2.06
2022-07-28T07:10:52.188Z,1.86
2022-07-28T07:11:38.644Z,1.90
2022-07-28T07:12:25.281Z,2.00
2022-07-28T07:13:11.789Z,1.95
2022-07-28T07:14:02.632Z,1.84
2022-07-28T07:14:49.329Z,1.90
2022-07-28T07:15:36.238Z,1.81
2022-07-28T07:16:22.844Z,1.99
2022-07-28T07:17:09.445Z,1.73
2022-07-28T07:17:57.012Z,1.96
2022-07-28T07:18:43.718Z,2.14
2022-07-28T07:19:32.625Z,2.01
2022-07-28T07:20:19.729Z,1.97
2022-07-28T07:21:06.361Z,1.73
2022-07-28T07:21:53.028Z,1.92
2022-07-28T07:22:44.330Z,1.83
2022-07-28T07:23:30.914Z,1.84
2022-07-28T07:24:17.934Z,1.95
2022-07-28T07:25:09.236Z,1.80
2022-07-28T07:25:55.857Z,2.06
2022-07-28T07:26:42.508Z,1.90
2022-07-28T07:27:28.997Z,1.76
2022-07-28T07:28:15.512Z,1.68
2022-07-28T07:29:04.122Z,1.84
2022-07-28T07:29:50.560Z,1.95
2022-07-28T07:30:36.998Z,1.73
2022-07-28T07:31:23.584Z,1.76
2022-07-28T07:32:11.038Z,2.15
2022-07-28T07:32:57.906Z,1.88
2022-07-28T07:33:44.437Z,1.79
2022-07-28T07:34:30.931Z,1.79
2022-07-28T07:35:17.599Z,1.94
2022-07-28T07:36:04.519Z,1.98
2022-07-28T07:36:51.088Z,1.91
2022-07-28T07:37:37.910Z,1.81
2022-07-28T07:38:29.054Z,1.67
2022-07-28T07:39:17.917Z,1.72
2022-07-28T07:40:05.758Z,1.97
2022-07-28T07:40:52.299Z,2.09
2022-07-28T07:41:38.762Z,1.75
2022-07-28T07:42:25.457Z,1.70
2022-07-28T07:43:12.124Z,1.75
2022-07-28T07:43:58.841Z,1.92
2022-07-28T07:44:50.130Z,2.02
2022-07-28T07:45:37.147Z,2.13
2022-07-28T07:46:23.989Z,1.94
2022-07-28T07:47:10.729Z,2.00
2022-07-28T07:47:57.243Z,1.97
2022-07-28T07:48:44.396Z,2.13
2022-07-28T07:49:45.525Z,2.08
2022-07-28T07:50:32.675Z,2.03
2022-07-28T07:51:19.118Z,2.09
2022-07-28T07:52:05.890Z,2.11
2022-07-28T07:52:52.424Z,1.80
2022-07-28T07:53:39.219Z,1.80
2022-07-28T07:54:25.711Z,1.99
2022-07-28T07:55:12.255Z,1.79
2022-07-28T07:55:58.792Z,1.61
2022-07-28T07:56:45.365Z,2.00
2022-07-28T07:57:31.993Z,1.82
2022-07-28T07:58:18.458Z,1.90
2022-07-28T07:59:04.932Z,1.78
2022-07-28T07:59:51.396Z,1.70
2022-07-28T08:00:37.868Z,1.68
2022-07-28T08:01:24.894Z,1.73
2022-07-28T08:02:11.498Z,1.79
2022-07-28T08:03:00.207Z,1.55
2022-07-28T08:03:50.161Z,1.58
2022-07-28T08:04:38.417Z,1.77
2022-07-28T08:05:35.334Z,1.60
2022-07-28T08:06:26.364Z,1.81
2022-07-28T08:07:13.473Z,1.97
2022-07-28T08:08:01.297Z,1.77
2022-07-28T08:08:48.658Z,1.54
2022-07-28T08:09:35.616Z,1.52
2022-07-28T08:10:22.140Z,1.49
2022-07-28T08:11:08.711Z,1.61
2022-07-28T08:11:55.340Z,1.89
2022-07-28T08:12:41.967Z,1.83
2022-07-28T08:13:28.412Z,1.82
2022-07-28T08:14:15.361Z,1.83
2022-07-28T08:15:03.282Z,1.74
2022-07-28T08:15:50.135Z,2.04
2022-07-28T08:16:37.011Z,2.07
2022-07-28T08:17:26.240Z,1.71
2022-07-28T08:18:13.269Z,1.70
2022-07-28T08:19:00.149Z,1.78
2022-07-28T08:19:46.741Z,1.73
2022-07-28T08:20:33.462Z,1.97
2022-07-28T08:21:20.189Z,1.94
2022-07-28T08:22:06.832Z,2.02
2022-07-28T08:22:56.300Z,2.06
2022-07-28T08:23:42.992Z,1.82
2022-07-28T08:24:33.503Z,1.72
2022-07-28T08:25:20.840Z,1.89
2022-07-28T08:26:08.120Z,1.68
2022-07-28T08:26:54.675Z,1.53
2022-07-28T08:27:41.586Z,1.57
2022-07-28T08:28:28.169Z,1.92
2022-07-28T08:29:14.639Z,1.88
2022-07-28T08:30:01.128Z,1.71
2022-07-28T08:30:47.655Z,1.57
2022-07-28T08:31:35.473Z,1.60
2022-07-28T08:32:22.294Z,1.82
2022-07-28T08:33:08.935Z,1.50
2022-07-28T08:33:55.556Z,1.71
2022-07-28T08:34:42.343Z,1.84
2022-07-28T08:35:34.363Z,2.08
2022-07-28T08:36:21.859Z,1.83
2022-07-28T08:37:08.490Z,1.73
2022-07-28T08:37:54.928Z,1.79
2022-07-28T08:38:41.417Z,1.68
2022-07-28T08:39:28.037Z,1.60
2022-07-28T08:40:15.896Z,1.60
2022-07-28T08:41:12.987Z,1.76
2022-07-28T08:42:04.843Z,2.13
2022-07-28T08:43:17.026Z,1.95
2022-07-28T08:44:07.803Z,2.04
2022-07-28T08:45:01.983Z,1.81
2022-07-28T08:45:57.753Z,1.86
2022-07-28T08:46:49.246Z,1.67
2022-07-28T08:47:51.909Z,1.76
2022-07-28T08:48:44.011Z,1.99
2022-07-28T08:49:33.133Z,1.86
2022-07-28T08:50:27.778Z,1.87
2022-07-28T08:51:15.690Z,1.86
2022-07-28T08:52:03.010Z,1.74
2022-07-28T08:52:51.726Z,1.64
2022-07-28T08:53:41.016Z,1.73
2022-07-28T08:54:29.175Z,1.74
2022-07-28T08:55:23.322Z,1.82
2022-07-28T08:56:15.767Z,1.72
2022-07-28T08:57:03.673Z,1.71
2022-07-28T08:57:51.047Z,1.72
2022-07-28T08:58:38.281Z,1.71
2022-07-28T08:59:26.064Z,1.79
2022-07-28T09:00:12.969Z,1.74
2022-07-28T09:01:08.415Z,1.99
2022-07-28T09:01:57.657Z,1.67
2022-07-28T09:02:52.248Z,1.65
2022-07-28T09:03:39.682Z,1.78
2022-07-28T09:04:26.646Z,1.63
2022-07-28T09:05:13.785Z,1.77
2022-07-28T09:06:00.449Z,1.67
2022-07-28T09:06:48.269Z,1.57
2022-07-28T09:07:37.874Z,1.75
2022-07-28T09:08:25.415Z,1.76
2022-07-28T09:09:11.911Z,1.65
2022-07-28T09:10:02.937Z,1.86
2022-07-28T09:10:50.635Z,2.03
2022-07-28T09:11:38.789Z,1.76
2022-07-28T09:12:27.188Z,1.77
2022-07-28T09:13:15.650Z,1.64
2022-07-28T09:14:02.168Z,1.79
2022-07-28T09:14:48.910Z,1.70
2022-07-28T09:15:37.543Z,1.67
2022-07-28T09:16:24.273Z,1.70
2022-07-28T09:17:12.505Z,2.14
2022-07-28T09:17:59.010Z,1.69
2022-07-28T09:18:45.617Z,2.01
2022-07-28T09:19:34.418Z,1.78
2022-07-28T09:20:23.883Z,1.75
2022-07-28T09:21:13.698Z,1.76
2022-07-28T09:22:00.739Z,1.72
2022-07-28T09:23:42.756Z,1.86
2022-07-28T09:24:39.666Z,1.79
2022-07-28T09:25:27.924Z,1.80
2022-07-28T09:26:16.272Z,1.68
2022-07-28T09:27:09.766Z,2.09
2022-07-28T09:28:05.247Z,2.01
2022-07-28T09:28:52.819Z,1.75
2022-07-28T09:29:42.163Z,1.98
2022-07-28T09:30:35.046Z,1.82
2022-07-28T09:31:23.929Z,1.78
2022-07-28T09:32:13.801Z,1.94
2022-07-28T09:33:43.106Z,1.74
2022-07-28T09:34:43.865Z,1.66
2022-07-28T09:35:30.414Z,1.57
2022-07-28T09:36:17.118Z,1.82
2022-07-28T09:37:03.930Z,1.84
2022-07-28T09:37:59.253Z,1.84
2022-07-28T09:38:46.899Z,1.80
2022-07-28T09:39:35.650Z,1.89
2022-07-28T09:40:22.668Z,1.83
2022-07-28T09:41:09.604Z,1.74
2022-07-28T09:41:56.151Z,1.66
2022-07-28T09:42:47.591Z,1.39
2022-07-28T09:43:45.061Z,1.74
2022-07-28T09:44:31.578Z,1.57
2022-07-28T09:45:23.357Z,1.47
2022-07-28T09:46:14.499Z,1.62
2022-07-28T09:47:21.531Z,1.69
2022-07-28T09:48:12.769Z,1.66
2022-07-28T09:49:01.091Z,1.91
2022-07-28T09:49:47.914Z,1.74
2022-07-28T09:50:38.189Z,1.68
2022-07-28T09:51:28.212Z,1.60
2022-07-28T09:52:28.597Z,1.79
2022-07-28T09:53:28.452Z,1.89
2022-07-28T09:54:17.933Z,1.79
2022-07-28T09:55:07.827Z,1.88
2022-07-28T09:55:55.557Z,1.79
2022-07-28T09:56:44.276Z,1.46
2022-07-28T09:57:32.233Z,1.36
2022-07-28T09:58:23.310Z,1.75
2022-07-28T09:59:14.930Z,1.70
2022-07-28T10:00:06.956Z,1.56
2022-07-28T10:01:13.090Z,1.97
2022-07-28T10:02:02.403Z,1.59
2022-07-28T10:02:50.590Z,1.68
2022-07-28T10:03:39.272Z,1.47
2022-07-28T10:04:35.467Z,1.43
2022-07-28T10:05:22.366Z,1.62
2022-07-28T10:06:15.771Z,1.65
2022-07-28T10:07:17.938Z,1.71
2022-07-28T10:08:04.670Z,1.32
2022-07-28T10:08:53.280Z,1.61
2022-07-28T10:09:41.114Z,1.45
2022-07-28T10:10:27.730Z,1.48
2022-07-28T10:11:16.989Z,1.48
2022-07-28T10:12:18.325Z,1.52
2022-07-28T10:13:06.360Z,1.48
2022-07-28T10:14:07.118Z,1.24
2022-07-28T10:14:56.132Z,1.38
2022-07-28T10:16:01.313Z,1.46
2022-07-28T10:16:52.565Z,1.41
2022-07-28T10:17:39.535Z,1.32
2022-07-28T10:18:26.027Z,1.28
2022-07-28T10:19:12.609Z,1.23
2022-07-28T10:20:01.783Z,1.42
2022-07-28T10:20:50.903Z,1.38
2022-07-28T10:21:44.305Z,1.41
2022-07-28T10:22:39.523Z,1.35
2022-07-28T10:23:29.706Z,1.30
2022-07-28T10:24:23.017Z,1.34
2022-07-28T10:25:12.481Z,1.46
2022-07-28T10:26:00.602Z,1.45
2022-07-28T10:26:48.320Z,1.38
2022-07-28T10:27:36.587Z,1.31
2022-07-28T10:28:23.908Z,1.42
2022-07-28T10:29:15.224Z,1.57
2022-07-28T10:30:05.023Z,1.72
2022-07-28T10:30:59.977Z,1.34
2022-07-28T10:31:53.149Z,1.48
2022-07-28T10:32:43.352Z,1.40
2022-07-28T10:33:32.668Z,1.54
2022-07-28T10:34:27.642Z,1.20
2022-07-28T10:35:16.720Z,1.48
2022-07-28T10:36:03.705Z,1.73
2022-07-28T10:36:54.895Z,1.60
2022-07-28T10:38:02.542Z,1.71
2022-07-28T10:38:50.288Z,1.58
2022-07-28T10:39:57.522Z,1.49
2022-07-28T10:40:48.228Z,1.65
2022-07-28T10:41:41.279Z,1.50
2022-07-28T10:42:29.357Z,1.49
2022-07-28T10:43:16.132Z,1.76
2022-07-28T10:44:03.877Z,1.72
2022-07-28T10:44:53.742Z,1.54
2022-07-28T10:46:04.408Z,1.55
2022-07-28T10:46:49.848Z,1.51
2022-07-28T10:47:36.727Z,1.60
2022-07-28T10:48:24.082Z,1.53
2022-07-28T10:49:12.757Z,1.51
2022-07-28T10:50:02.207Z,1.58
2022-07-28T10:50:49.878Z,1.73
2022-07-28T10:52:00.122Z,1.66
2022-07-28T10:52:51.611Z,1.53
2022-07-28T10:54:01.124Z,1.70
2022-07-28T10:55:17.282Z,1.67
2022-07-28T10:56:17.984Z,1.73
2022-07-28T10:57:11.353Z,1.50
2022-07-28T10:58:19.083Z,1.78
2022-07-28T10:59:35.133Z,1.46
2022-07-28T11:00:26.800Z,1.48
2022-07-28T11:01:48.473Z,1.41
2022-07-28T11:02:51.930Z,1.41
2022-07-28T11:03:44.069Z,1.48
2022-07-28T11:04:41.453Z,1.66
2022-07-28T11:05:41.582Z,1.66